createdAt,value
2022-08-05T00:01:27.887Z,92317.34
2022-08-05T00:04:32.233Z,92299.84
2022-08-05T00:08:00.960Z,92296.00
2022-08-05T00:11:02.330Z,92306.50
2022-08-05T00:14:12.645Z,92300.50
2022-08-05T00:17:20.937Z,92288.28
2022-08-05T00:20:29.034Z,92281.91
2022-08-05T00:23:46.085Z,92285.22
2022-08-05T00:26:52.150Z,92281.25
2022-08-05T00:29:57.473Z,92274.53
2022-08-05T00:33:05.392Z,92276.88
2022-08-05T00:37:10.519Z,92272.94
2022-08-05T00:39:57.205Z,92274.44
2022-08-05T00:43:07.480Z,92263.13
2022-08-05T00:46:11.407Z,92275.31
2022-08-05T00:49:19.678Z,92285.94
2022-08-05T00:52:28.298Z,92283.00
2022-08-05T00:55:42.184Z,92281.50
2022-08-05T00:58:47.034Z,92273.66
2022-08-05T01:01:52.023Z,92265.25
2022-08-05T01:04:56.874Z,92260.34
2022-08-05T01:08:40.291Z,92265.69
2022-08-05T01:11:33.516Z,92286.47
2022-08-05T01:14:46.642Z,92279.94
2022-08-05T01:18:01.309Z,92283.81
2022-08-05T01:21:43.333Z,92279.69
2022-08-05T01:25:13.587Z,92265.91
2022-08-05T01:28:32.263Z,92275.13
2022-08-05T01:31:56.023Z,92269.34
2022-08-05T01:35:03.446Z,92272.56
2022-08-05T01:38:26.855Z,92274.13
2022-08-05T01:41:35.288Z,92285.69
2022-08-05T01:44:41.026Z,92273.41
2022-08-05T01:47:47.837Z,92283.41
2022-08-05T01:50:53.156Z,92284.47
2022-08-05T01:53:59.076Z,92277.59
2022-08-05T01:58:29.705Z,92286.34
2022-08-05T02:00:34.307Z,92288.25
2022-08-05T02:03:41.726Z,92275.00
2022-08-05T02:06:46.523Z,92271.13
2022-08-05T02:09:52.706Z,92276.91
2022-08-05T02:13:02.277Z,92278.00
2022-08-05T02:16:29.348Z,92276.63
2022-08-05T02:19:47.061Z,92284.47
2022-08-05T02:22:59.823Z,92279.72
2022-08-05T02:26:07.044Z,92267.72
2022-08-05T02:29:21.643Z,92269.66
2022-08-05T02:32:31.844Z,92256.16
2022-08-05T02:35:50.904Z,92261.25
2022-08-05T02:39:04.407Z,92266.19
2022-08-05T02:42:26.147Z,92260.78
2022-08-05T02:45:52.316Z,92254.25
2022-08-05T02:48:58.885Z,92257.50
2022-08-05T02:52:04.836Z,92239.63
2022-08-05T02:55:10.925Z,92245.50
2022-08-05T02:58:17.551Z,92244.09
2022-08-05T03:01:29.031Z,92247.38
2022-08-05T03:04:33.432Z,92246.44
2022-08-05T03:07:56.569Z,92232.94
2022-08-05T03:11:53.539Z,92230.56
2022-08-05T03:14:26.248Z,92229.75
2022-08-05T03:17:29.606Z,92202.28
2022-08-05T03:20:33.728Z,92207.22
2022-08-05T03:23:41.640Z,92205.97
2022-08-05T03:26:49.744Z,92200.47
2022-08-05T03:30:07.364Z,92204.38
2022-08-05T03:33:13.150Z,92198.94
2022-08-05T03:36:17.423Z,92196.81
2022-08-05T03:39:47.135Z,92198.03
2022-08-05T03:42:58.166Z,92201.47
2022-08-05T03:46:03.170Z,92222.22
2022-08-05T03:49:07.215Z,92210.97
2022-08-05T03:52:36.506Z,92205.03
2022-08-05T03:56:11.851Z,92215.78
2022-08-05T03:59:29.182Z,92201.53
2022-08-05T04:02:58.612Z,92222.84
2022-08-05T04:06:04.608Z,92219.78
2022-08-05T04:09:13.025Z,92219.94
2022-08-05T04:12:23.695Z,92219.22
2022-08-05T04:15:32.983Z,92211.47
2022-08-05T04:18:39.119Z,92211.47
2022-08-05T04:22:08.391Z,92216.19
2022-08-05T04:25:07.962Z,92201.50
2022-08-05T04:28:14.533Z,92211.50
2022-08-05T04:31:18.923Z,92196.97
2022-08-05T04:34:32.420Z,92198.56
2022-08-05T04:38:01.015Z,92202.16
2022-08-05T04:41:01.058Z,92200.63
2022-08-05T04:44:08.943Z,92210.94
2022-08-05T04:47:18.382Z,92220.25
2022-08-05T04:50:37.223Z,92196.53
2022-08-05T04:53:41.389Z,92193.72
2022-08-05T04:56:46.101Z,92199.31
2022-08-05T04:59:49.460Z,92207.72
2022-08-05T05:02:53.803Z,92192.34
2022-08-05T05:06:39.273Z,92197.91
2022-08-05T05:09:21.231Z,92197.22
2022-08-05T05:12:27.405Z,92199.34
2022-08-05T05:15:57.927Z,92192.31
2022-08-05T05:19:17.584Z,92165.69
2022-08-05T05:22:24.687Z,92181.09
2022-08-05T05:25:32.697Z,92183.97
2022-08-05T05:28:42.667Z,92185.31
2022-08-05T05:31:48.458Z,92196.41
2022-08-05T05:34:54.925Z,92197.59
2022-08-05T05:38:03.705Z,92197.16
2022-08-05T05:41:10.000Z,92221.41
2022-08-05T05:44:36.848Z,92207.97
2022-08-05T05:48:07.141Z,92207.56
2022-08-05T05:51:14.791Z,92199.69
2022-08-05T05:54:19.863Z,92181.16
2022-08-05T05:57:23.183Z,92160.19
2022-08-05T06:00:31.767Z,92168.53
2022-08-05T06:03:53.788Z,92146.19
2022-08-05T06:07:01.941Z,92160.75
2022-08-05T06:10:10.453Z,92164.13
2022-08-05T06:13:14.850Z,92164.69
2022-08-05T06:16:30.805Z,92163.94
2022-08-05T06:19:35.855Z,92171.69
2022-08-05T06:22:40.469Z,92158.38
2022-08-05T06:26:12.789Z,92162.44
2022-08-05T06:29:43.048Z,92166.75
2022-08-05T06:32:31.790Z,92168.88
2022-08-05T06:36:05.767Z,92152.41
2022-08-05T06:38:59.760Z,92146.88
2022-08-05T06:42:04.095Z,92156.59
2022-08-05T06:45:09.516Z,92138.34
2022-08-05T06:48:53.814Z,92106.97
2022-08-05T06:51:40.879Z,92116.84
2022-08-05T06:54:44.639Z,92140.53
2022-08-05T06:58:02.583Z,92144.47
2022-08-05T07:01:14.747Z,92171.22
2022-08-05T07:04:25.620Z,92157.28
2022-08-05T07:07:35.421Z,92162.97
2022-08-05T07:10:53.509Z,92161.91
2022-08-05T07:14:29.048Z,92152.03
2022-08-05T07:18:01.163Z,92155.53
2022-08-05T07:20:57.619Z,92165.06
2022-08-05T07:24:01.829Z,92181.13
2022-08-05T07:27:08.788Z,92175.91
2022-08-05T07:30:27.780Z,92173.69
2022-08-05T07:33:36.802Z,92163.78
2022-08-05T07:36:40.790Z,92132.09
2022-08-05T07:40:26.588Z,92159.06
2022-08-05T07:43:14.573Z,92140.56
2022-08-05T07:46:29.197Z,92120.03
2022-08-05T07:49:33.775Z,92128.16
2022-08-05T07:52:47.610Z,92129.16
2022-08-05T07:56:06.368Z,92134.34
2022-08-05T07:59:15.246Z,92139.34
2022-08-05T08:02:18.878Z,92149.97
2022-08-05T08:05:22.690Z,92145.97
2022-08-05T08:08:30.302Z,92148.38
2022-08-05T08:11:47.595Z,92149.00
2022-08-05T08:14:57.610Z,92147.38
2022-08-05T08:18:13.694Z,92147.84
2022-08-05T08:21:18.028Z,92141.28
2022-08-05T08:24:21.610Z,92133.88
2022-08-05T08:27:47.746Z,92134.72
2022-08-05T08:30:55.340Z,92120.28
2022-08-05T08:33:58.995Z,92117.72
2022-08-05T08:37:05.036Z,92128.44
2022-08-05T08:40:09.442Z,92114.41
2022-08-05T08:45:19.456Z,92138.13
2022-08-05T08:46:38.913Z,92143.94
2022-08-05T08:50:23.197Z,92131.44
2022-08-05T08:53:17.230Z,92145.13
2022-08-05T08:56:22.286Z,92137.13
2022-08-05T08:59:27.553Z,92127.88
2022-08-05T09:02:37.770Z,92113.28
2022-08-05T09:06:08.867Z,92111.19
2022-08-05T09:09:07.284Z,92112.59
2022-08-05T09:12:20.475Z,92123.78
2022-08-05T09:15:25.197Z,92122.44
2022-08-05T09:18:29.601Z,92142.69
2022-08-05T09:22:21.852Z,92125.81
2022-08-05T09:25:02.135Z,92129.97
2022-08-05T09:28:24.320Z,92122.34
2022-08-05T09:32:39.883Z,92126.31
2022-08-05T09:35:00.980Z,92111.34
2022-08-05T09:38:18.416Z,92116.69
2022-08-05T09:41:33.166Z,92133.31
2022-08-05T09:44:52.865Z,92128.38
2022-08-05T09:48:00.501Z,92142.97
2022-08-05T09:51:15.025Z,92139.75
2022-08-05T09:54:32.558Z,92146.63
2022-08-05T09:57:40.845Z,92143.03
2022-08-05T10:00:54.967Z,92142.94
2022-08-05T10:04:12.988Z,92127.38
2022-08-05T10:07:20.716Z,92151.25
2022-08-05T10:10:53.868Z,92135.13
2022-08-05T10:13:58.759Z,92162.25
2022-08-05T10:17:38.029Z,92136.22
2022-08-05T10:20:49.215Z,92141.25
2022-08-05T10:24:00.303Z,92131.53
2022-08-05T10:27:05.553Z,92130.13
2022-08-05T10:31:20.214Z,92134.69
2022-08-05T10:33:37.141Z,92161.59
2022-08-05T10:36:43.611Z,92156.91
2022-08-05T10:39:59.170Z,92161.97
2022-08-05T10:43:30.847Z,92151.56
2022-08-05T10:46:54.000Z,92158.44
2022-08-05T10:50:28.062Z,92168.81
2022-08-05T10:53:54.897Z,92199.09
2022-08-05T10:56:59.077Z,92193.97
2022-08-05T11:00:18.542Z,92189.16
2022-08-05T11:03:26.975Z,92203.00
2022-08-05T11:06:31.373Z,92207.91
2022-08-05T11:09:47.164Z,92216.94
2022-08-05T11:12:55.620Z,92211.78
2022-08-05T11:16:22.452Z,92205.75
2022-08-05T11:20:11.436Z,92204.78
2022-08-05T11:24:04.182Z,92208.88
2022-08-05T11:27:45.763Z,92204.81
2022-08-05T11:30:58.839Z,92214.88
2022-08-05T11:34:09.676Z,92209.50
2022-08-05T11:38:30.245Z,92210.66
2022-08-05T11:41:35.578Z,92191.66
2022-08-05T11:44:53.262Z,92174.97
2022-08-05T11:47:58.726Z,92157.03
2022-08-05T11:51:03.108Z,92150.38
2022-08-05T11:54:07.326Z,92164.41
2022-08-05T11:57:39.428Z,92167.81
2022-08-05T12:00:38.125Z,92160.72
2022-08-05T12:03:55.579Z,92177.88
2022-08-05T12:07:02.977Z,92165.34
2022-08-05T12:10:09.570Z,92177.13
2022-08-05T12:13:27.648Z,92187.66
2022-08-05T12:16:45.270Z,92200.47
2022-08-05T12:20:25.654Z,92204.06
2022-08-05T12:23:19.400Z,92201.38
2022-08-05T12:26:23.956Z,92208.09
2022-08-05T12:29:38.675Z,92207.00
2022-08-05T12:32:50.379Z,92221.50
2022-08-05T12:35:56.478Z,92217.59
2022-08-05T12:39:00.898Z,92226.56
2022-08-05T12:42:09.378Z,92235.47
2022-08-05T12:45:19.206Z,92245.78
2022-08-05T12:48:27.357Z,92252.06
2022-08-05T12:52:12.864Z,92255.91
2022-08-05T12:55:22.430Z,92260.31
2022-08-05T12:58:49.099Z,92274.47
2022-08-05T13:02:10.084Z,92257.91
2022-08-05T13:05:16.379Z,92268.78
2022-08-05T13:08:20.213Z,92277.50
2022-08-05T13:12:01.191Z,92272.69
2022-08-05T13:15:05.481Z,92286.31
2022-08-05T13:18:11.097Z,92278.53
2022-08-05T13:21:23.210Z,92269.31
2022-08-05T13:24:51.188Z,92270.66
2022-08-05T13:28:00.134Z,92259.47
2022-08-05T13:31:13.911Z,92264.31
2022-08-05T13:34:24.606Z,92251.28
2022-08-05T13:37:34.549Z,92257.56
2022-08-05T13:40:49.935Z,92265.00
2022-08-05T13:43:55.733Z,92257.16
2022-08-05T13:47:01.909Z,92251.94
2022-08-05T13:50:11.428Z,92261.50
2022-08-05T13:53:19.022Z,92273.75
2022-08-05T13:56:22.407Z,92265.47
2022-08-05T13:59:27.653Z,92253.91
2022-08-05T14:02:34.571Z,92267.38
2022-08-05T14:06:04.619Z,92255.22
2022-08-05T14:09:02.999Z,92268.00
2022-08-05T14:12:17.271Z,92271.72
2022-08-05T14:16:07.886Z,92262.53
2022-08-05T14:18:45.556Z,92265.44
2022-08-05T14:22:10.245Z,92260.34
2022-08-05T14:25:21.770Z,92269.16
2022-08-05T14:28:27.314Z,92284.16
2022-08-05T14:32:02.410Z,92275.91
2022-08-05T14:34:57.669Z,92287.25
2022-08-05T14:38:01.856Z,92280.88
2022-08-05T14:41:07.451Z,92280.31
2022-08-05T14:44:19.952Z,92278.50
2022-08-05T14:48:02.495Z,92279.28
2022-08-05T14:50:48.752Z,92277.66
2022-08-05T14:54:26.338Z,92273.00
2022-08-05T14:57:18.152Z,92293.81
2022-08-05T15:00:22.136Z,92292.44
2022-08-05T15:03:39.057Z,92276.34
2022-08-05T15:06:49.481Z,92290.69
2022-08-05T15:09:54.546Z,92283.06
2022-08-05T15:13:03.290Z,92277.41
2022-08-05T15:16:07.983Z,92294.72
2022-08-05T15:19:23.388Z,92299.00
2022-08-05T15:22:28.925Z,92307.72
2022-08-05T15:25:51.363Z,92302.34
2022-08-05T15:28:56.708Z,92295.50
2022-08-05T15:32:02.267Z,92307.22
2022-08-05T15:35:10.697Z,92305.63
2022-08-05T15:38:36.037Z,92302.25
2022-08-05T15:41:58.584Z,92306.06
2022-08-05T15:45:03.036Z,92293.28
2022-08-05T15:48:14.269Z,92306.69
2022-08-05T15:51:27.939Z,92309.53
2022-08-05T15:54:47.056Z,92314.50
2022-08-05T15:57:53.464Z,92313.34
2022-08-05T16:01:12.003Z,92320.00
2022-08-05T16:04:20.541Z,92303.13
2022-08-05T16:07:29.774Z,92320.88
2022-08-05T16:10:33.463Z,92323.34
2022-08-05T16:13:38.016Z,92308.75
2022-08-05T16:16:41.313Z,92323.13
2022-08-05T16:20:05.629Z,92312.81
2022-08-05T16:23:09.291Z,92327.34
2022-08-05T16:26:13.539Z,92322.47
2022-08-05T16:29:17.198Z,92320.25
2022-08-05T16:32:29.327Z,92319.00
2022-08-05T16:35:41.915Z,92323.50
2022-08-05T16:38:55.162Z,92334.28
2022-08-05T16:42:15.055Z,92335.13
2022-08-05T16:46:06.939Z,92336.16
2022-08-05T16:48:44.311Z,92337.00
2022-08-05T16:51:51.365Z,92332.34
2022-08-05T16:54:58.564Z,92340.69
2022-08-05T16:58:03.469Z,92340.09
2022-08-05T17:01:12.133Z,92335.00
2022-08-05T17:04:16.374Z,92335.41
2022-08-05T17:07:39.272Z,92337.88
2022-08-05T17:10:46.134Z,92337.03
2022-08-05T17:13:49.817Z,92336.97
2022-08-05T17:16:54.536Z,92343.66
2022-08-05T17:19:58.568Z,92319.53
2022-08-05T17:23:02.508Z,92336.22
2022-08-05T17:26:05.967Z,92329.09
2022-08-05T17:29:10.387Z,92327.91
2022-08-05T17:32:26.340Z,92326.16
2022-08-05T17:35:32.460Z,92333.09
2022-08-05T17:38:53.870Z,92345.16
2022-08-05T17:42:18.831Z,92332.34
2022-08-05T17:45:38.099Z,92335.06
2022-08-05T17:48:44.839Z,92319.06
2022-08-05T17:51:50.942Z,92329.03
2022-08-05T17:54:55.035Z,92331.25
2022-08-05T17:58:01.011Z,92344.59
2022-08-05T18:01:09.614Z,92324.50
2022-08-05T18:04:13.466Z,92348.22
2022-08-05T18:07:25.447Z,92350.97
2022-08-05T18:10:36.885Z,92340.03
2022-08-05T18:13:44.395Z,92338.78
2022-08-05T18:16:51.933Z,92341.53
2022-08-05T18:19:56.287Z,92344.75
2022-08-05T18:23:11.502Z,92363.56
2022-08-05T18:26:18.748Z,92342.00
2022-08-05T18:29:40.265Z,92337.22
2022-08-05T18:32:53.342Z,92335.09
2022-08-05T18:36:03.339Z,92353.78
2022-08-05T18:39:22.267Z,92337.28
2022-08-05T18:42:32.053Z,92347.84
2022-08-05T18:45:41.248Z,92357.41
2022-08-05T18:48:46.427Z,92353.84
2022-08-05T18:52:10.980Z,92357.78
2022-08-05T18:55:14.856Z,92341.50
2022-08-05T18:58:26.994Z,92352.69
2022-08-05T19:01:47.854Z,92363.66
2022-08-05T19:05:02.396Z,92358.88
2022-08-05T19:08:30.543Z,92351.25
2022-08-05T19:11:56.698Z,92354.09
2022-08-05T19:14:59.802Z,92350.03
2022-08-05T19:18:09.124Z,92355.19
2022-08-05T19:21:13.551Z,92359.03
2022-08-05T19:24:17.787Z,92354.63
2022-08-05T19:27:38.646Z,92350.84
2022-08-05T19:30:48.600Z,92351.00
2022-08-05T19:33:56.284Z,92368.00
2022-08-05T19:37:00.930Z,92369.31
2022-08-05T19:40:10.268Z,92368.03
2022-08-05T19:44:03.985Z,92364.25
2022-08-05T19:46:41.112Z,92377.09
2022-08-05T19:49:51.191Z,92377.34
2022-08-05T19:53:09.368Z,92381.00
2022-08-05T19:56:29.728Z,92383.03
2022-08-05T19:59:55.786Z,92375.66
2022-08-05T20:02:59.615Z,92366.84
2022-08-05T20:06:15.618Z,92376.72
2022-08-05T20:09:20.600Z,92394.31
2022-08-05T20:12:25.245Z,92378.16
2022-08-05T20:15:52.465Z,92374.47
2022-08-05T20:18:55.521Z,92384.94
2022-08-05T20:21:59.800Z,92366.03
2022-08-05T20:25:03.340Z,92357.56
2022-08-05T20:28:13.709Z,92357.56
2022-08-05T20:31:21.971Z,92351.59
2022-08-05T20:34:26.775Z,92347.44
2022-08-05T20:38:05.417Z,92372.91
2022-08-05T20:40:55.401Z,92371.97
2022-08-05T20:44:05.192Z,92364.91
2022-08-05T20:47:31.743Z,92373.38
2022-08-05T20:50:39.694Z,92368.50
2022-08-05T20:53:56.421Z,92373.38
2022-08-05T20:57:00.955Z,92363.13
2022-08-05T21:00:19.936Z,92370.16
2022-08-05T21:03:34.571Z,92355.78
2022-08-05T21:06:45.021Z,92375.50
2022-08-05T21:09:53.453Z,92369.44
2022-08-05T21:13:11.308Z,92372.56
2022-08-05T21:16:20.922Z,92365.91
2022-08-05T21:19:26.743Z,92372.31
2022-08-05T21:22:32.480Z,92366.38
2022-08-05T21:25:36.482Z,92373.06
2022-08-05T21:28:41.067Z,92363.41
2022-08-05T21:31:51.837Z,92363.53
2022-08-05T21:35:08.856Z,92357.72
2022-08-05T21:38:21.910Z,92360.56
2022-08-05T21:41:25.540Z,92347.25
2022-08-05T21:44:37.788Z,92360.09
2022-08-05T21:47:56.077Z,92347.81
2022-08-05T21:51:01.091Z,92350.22
2022-08-05T21:54:05.835Z,92348.66
2022-08-05T21:57:31.326Z,92359.13
2022-08-05T22:00:36.256Z,92335.94
2022-08-05T22:03:48.806Z,92354.59
2022-08-05T22:06:57.418Z,92356.53
2022-08-05T22:10:01.113Z,92369.59
2022-08-05T22:14:05.113Z,92361.72
2022-08-05T22:16:41.706Z,92368.88
2022-08-05T22:20:00.677Z,92365.66
2022-08-05T22:24:03.171Z,92360.69
2022-08-05T22:27:17.406Z,92377.22
2022-08-05T22:30:21.348Z,92380.41
2022-08-05T22:33:56.630Z,92384.00
2022-08-05T22:36:50.765Z,92397.56
2022-08-05T22:39:55.739Z,92396.72
2022-08-05T22:43:00.329Z,92409.97
2022-08-05T22:46:12.249Z,92415.44
2022-08-05T22:50:17.839Z,92419.69
2022-08-05T22:52:52.503Z,92420.78
2022-08-05T22:55:59.439Z,92426.97
2022-08-05T22:59:42.610Z,92417.44
2022-08-05T23:02:28.982Z,92431.13
2022-08-05T23:05:36.020Z,92418.50
2022-08-05T23:08:39.697Z,92419.47
2022-08-05T23:11:46.640Z,92410.00
2022-08-05T23:14:53.817Z,92417.22
2022-08-05T23:18:00.850Z,92412.88
2022-08-05T23:21:06.269Z,92418.97
2022-08-05T23:24:14.377Z,92415.19
2022-08-05T23:27:20.003Z,92405.66
2022-08-05T23:30:26.954Z,92414.53
2022-08-05T23:34:03.200Z,92419.44
2022-08-05T23:36:56.410Z,92409.78
2022-08-05T23:40:07.749Z,92400.25
2022-08-05T23:43:25.090Z,92416.56
2022-08-05T23:46:39.356Z,92409.13
2022-08-05T23:49:47.143Z,92413.00
2022-08-05T23:52:52.575Z,92408.25
2022-08-05T23:55:57.479Z,92414.34
2022-08-05T23:59:03.094Z,92409.34
